createdAt,value
2023-02-23T00:01:27.204Z,-11.28
2023-02-23T00:04:33.351Z,-10.78
2023-02-23T00:11:22.980Z,-10.93
2023-02-23T00:14:29.770Z,-10.99
2023-02-23T00:17:34.551Z,-10.85
2023-02-23T00:20:44.993Z,-11.20
2023-02-23T00:23:52.004Z,-10.09
2023-02-23T00:26:56.745Z,-9.02
2023-02-23T00:30:01.113Z,-8.35
2023-02-23T00:33:08.549Z,-7.39
2023-02-23T00:36:15.715Z,-7.04
2023-02-23T00:39:29.966Z,-6.55
2023-02-23T00:42:34.319Z,-5.86
2023-02-23T00:45:38.425Z,-4.38
2023-02-23T00:48:42.755Z,-4.47
2023-02-23T00:51:47.802Z,-3.74
2023-02-23T00:54:54.316Z,-3.00
2023-02-23T00:58:00.499Z,-2.81
2023-02-23T01:01:11.215Z,-3.78
2023-02-23T01:04:15.837Z,-4.12
2023-02-23T01:07:19.640Z,-3.14
2023-02-23T01:14:58.662Z,-2.20
2023-02-23T01:24:04.821Z,-2.31
2023-02-23T01:27:19.294Z,-2.26
2023-02-23T01:30:23.945Z,-1.50
2023-02-23T01:33:28.305Z,-1.47
2023-02-23T01:36:36.599Z,-1.49
2023-02-23T01:39:40.842Z,-0.96
2023-02-23T01:42:47.969Z,-0.22
2023-02-23T01:45:53.006Z,0.45
2023-02-23T01:48:58.523Z,0.77
2023-02-23T01:52:08.100Z,1.68
2023-02-23T01:55:17.190Z,1.05
2023-02-23T01:58:21.977Z,0.48
2023-02-23T02:01:26.499Z,0.76
2023-02-23T02:04:34.408Z,-0.32
2023-02-23T02:07:40.833Z,-0.57
2023-02-23T02:10:47.551Z,0.60
2023-02-23T02:13:54.935Z,-0.83
2023-02-23T02:17:08.739Z,0.51
2023-02-23T02:20:33.854Z,0.36
2023-02-23T02:23:41.183Z,-0.93
2023-02-23T02:27:08.276Z,-0.73
2023-02-23T02:30:28.486Z,-0.22
2023-02-23T02:33:44.836Z,-0.17
2023-02-23T02:37:33.899Z,-1.02
2023-02-23T02:40:54.088Z,-0.51
2023-02-23T02:44:12.470Z,-0.88
2023-02-23T02:47:58.879Z,-1.09
2023-02-23T02:51:22.402Z,-2.65
2023-02-23T02:54:37.341Z,-2.29
2023-02-23T02:57:44.855Z,-1.29
2023-02-23T03:01:10.334Z,-2.37
2023-02-23T03:04:43.466Z,-2.80
2023-02-23T03:08:34.258Z,-3.02
2023-02-23T03:12:03.714Z,-2.09
2023-02-23T03:15:35.049Z,-1.86
2023-02-23T03:19:33.378Z,-2.10
2023-02-23T03:23:12.040Z,-2.09
2023-02-23T03:26:50.523Z,-2.77
2023-02-23T03:30:22.439Z,-1.98
2023-02-23T03:34:06.297Z,-1.71
2023-02-23T03:37:41.952Z,-1.86
2023-02-23T03:41:07.376Z,-2.20
2023-02-23T03:44:37.685Z,-2.54
2023-02-23T03:48:03.586Z,-2.40
2023-02-23T03:51:31.168Z,-2.45
2023-02-23T03:55:00.381Z,-2.24
2023-02-23T03:58:28.716Z,-2.30
2023-02-23T04:01:53.320Z,-2.24
2023-02-23T04:05:21.233Z,-2.51
2023-02-23T04:08:50.484Z,-2.58
2023-02-23T04:12:21.108Z,-2.41
2023-02-23T04:15:32.939Z,-2.16
2023-02-23T04:18:39.701Z,-2.33
2023-02-23T04:21:44.107Z,-2.67
2023-02-23T04:24:48.636Z,-2.54
2023-02-23T04:31:42.603Z,-3.07
2023-02-23T04:34:47.436Z,-2.82
2023-02-23T04:37:54.726Z,-3.06
2023-02-23T04:40:58.620Z,-2.84
2023-02-23T04:44:06.349Z,-3.00
2023-02-23T04:47:10.733Z,-2.28
2023-02-23T04:50:18.285Z,-2.79
2023-02-23T04:53:22.855Z,-2.62
2023-02-23T04:56:27.050Z,-2.94
2023-02-23T04:59:35.201Z,-2.99
2023-02-23T05:02:39.157Z,-2.77
2023-02-23T05:05:43.028Z,-2.37
2023-02-23T05:08:51.507Z,-2.02
2023-02-23T05:11:56.417Z,-2.12
2023-02-23T05:15:00.554Z,-2.14
2023-02-23T05:18:04.643Z,-2.67
2023-02-23T05:21:15.233Z,-2.55
2023-02-23T05:24:20.283Z,-2.52
2023-02-23T05:27:24.816Z,-2.42
2023-02-23T05:30:28.794Z,-2.32
2023-02-23T05:33:35.881Z,-2.22
2023-02-23T05:36:40.609Z,-1.67
2023-02-23T05:39:45.202Z,-2.12
2023-02-23T05:42:49.484Z,-2.27
2023-02-23T05:45:53.819Z,-2.15
2023-02-23T05:49:02.610Z,-2.17
2023-02-23T05:52:07.315Z,-1.90
2023-02-23T05:55:12.955Z,-2.42
2023-02-23T05:58:17.760Z,-2.47
2023-02-23T06:01:23.185Z,-2.19
2023-02-23T06:04:27.714Z,-2.21
2023-02-23T06:07:32.764Z,-1.81
2023-02-23T06:10:37.108Z,-1.93
2023-02-23T06:13:41.040Z,-2.14
2023-02-23T06:16:46.111Z,-2.41
2023-02-23T06:19:50.755Z,-2.06
2023-02-23T06:22:55.452Z,-1.66
2023-02-23T06:26:00.849Z,-2.43
2023-02-23T06:29:05.555Z,-2.22
2023-02-23T06:32:09.585Z,-2.41
2023-02-23T06:35:47.099Z,-2.62
2023-02-23T06:38:53.786Z,-2.32
2023-02-23T06:41:58.586Z,-2.38
2023-02-23T06:45:12.430Z,-2.43
2023-02-23T06:48:19.879Z,-2.80
2023-02-23T06:51:32.027Z,-2.94
2023-02-23T06:54:36.170Z,-2.70
2023-02-23T06:57:56.760Z,-2.56
2023-02-23T07:01:07.233Z,-3.00
2023-02-23T07:04:16.847Z,-2.62
2023-02-23T07:07:31.690Z,-2.33
2023-02-23T07:10:44.696Z,-2.48
2023-02-23T07:13:51.901Z,-2.79
2023-02-23T07:16:56.649Z,-3.15
2023-02-23T07:20:00.623Z,-2.81
2023-02-23T07:23:05.107Z,-2.78
2023-02-23T07:26:10.452Z,-2.65
2023-02-23T07:29:14.792Z,-3.08
2023-02-23T07:32:18.722Z,-2.94
2023-02-23T07:35:23.159Z,-2.96
2023-02-23T07:38:27.269Z,-3.49
2023-02-23T07:41:31.322Z,-3.58
2023-02-23T07:44:35.543Z,-3.36
2023-02-23T07:47:40.282Z,-3.21
2023-02-23T07:50:44.859Z,-3.22
2023-02-23T07:53:49.759Z,-3.14
2023-02-23T07:56:53.961Z,-2.98
2023-02-23T07:59:58.798Z,-3.16
2023-02-23T08:03:06.731Z,-3.42
2023-02-23T08:06:10.621Z,-3.49
2023-02-23T08:09:14.853Z,-3.76
2023-02-23T08:12:19.335Z,-3.82
2023-02-23T08:15:23.533Z,-3.89
2023-02-23T08:18:28.681Z,-4.06
2023-02-23T08:21:33.540Z,-4.08
2023-02-23T08:24:38.292Z,-4.09
2023-02-23T08:27:43.320Z,-4.27
2023-02-23T08:30:50.519Z,-4.49
2023-02-23T08:33:54.844Z,-4.69
2023-02-23T08:37:00.903Z,-4.82
2023-02-23T08:40:08.831Z,-4.60
2023-02-23T08:43:12.913Z,-4.73
2023-02-23T08:46:19.502Z,-4.82
2023-02-23T08:49:24.067Z,-5.04
2023-02-23T08:52:27.816Z,-5.14
2023-02-23T08:55:39.377Z,-4.95
2023-02-23T08:58:44.681Z,-5.15
2023-02-23T09:01:48.743Z,-5.40
2023-02-23T09:04:54.722Z,-5.62
2023-02-23T09:07:58.872Z,-6.00
2023-02-23T09:11:03.678Z,-6.02
2023-02-23T09:14:07.989Z,-5.50
2023-02-23T09:17:12.183Z,-5.68
2023-02-23T09:20:17.787Z,-5.39
2023-02-23T09:23:25.291Z,-5.57
2023-02-23T09:26:30.155Z,-5.49
2023-02-23T09:29:34.781Z,-5.54
2023-02-23T09:32:38.716Z,-6.22
2023-02-23T09:35:43.219Z,-6.44
2023-02-23T09:38:50.207Z,-6.08
2023-02-23T09:42:36.858Z,-6.36
2023-02-23T09:46:00.641Z,-6.39
2023-02-23T09:49:14.519Z,-6.81
2023-02-23T09:52:48.101Z,-6.96
2023-02-23T09:55:57.654Z,-7.63
2023-02-23T09:59:02.146Z,-7.92
2023-02-23T10:02:27.386Z,-7.72
2023-02-23T10:05:38.981Z,-7.20
2023-02-23T10:08:55.151Z,-7.24
2023-02-23T10:12:19.815Z,-7.55
2023-02-23T10:15:30.277Z,-7.75
2023-02-23T10:19:09.052Z,-7.65
2023-02-23T10:25:51.668Z,-7.70
2023-02-23T10:29:00.814Z,-7.52
2023-02-23T10:32:18.028Z,-7.13
2023-02-23T10:35:25.507Z,-7.56
2023-02-23T10:38:33.957Z,-7.95
2023-02-23T10:41:40.346Z,-7.46
2023-02-23T10:44:47.855Z,-7.17
2023-02-23T10:47:58.910Z,-6.99
2023-02-23T10:51:06.869Z,-7.02
2023-02-23T10:54:37.141Z,-7.66
2023-02-23T10:57:42.219Z,-7.50
2023-02-23T11:01:02.667Z,-7.79
2023-02-23T11:04:25.354Z,-7.51
2023-02-23T11:07:32.344Z,-7.79
2023-02-23T11:10:37.068Z,-7.97
2023-02-23T11:13:42.418Z,-8.32
2023-02-23T11:16:46.815Z,-8.00
2023-02-23T11:19:51.263Z,-7.73
2023-02-23T11:22:58.938Z,-7.56
2023-02-23T11:26:27.872Z,-7.66
2023-02-23T11:29:37.834Z,-7.68
2023-02-23T11:32:45.680Z,-8.31
2023-02-23T11:35:58.930Z,-8.25
2023-02-23T11:39:18.473Z,-8.24
2023-02-23T11:42:26.364Z,-8.27
2023-02-23T11:45:43.533Z,-8.03
2023-02-23T11:49:17.144Z,-8.15
2023-02-23T11:52:32.545Z,-8.44
2023-02-23T11:55:40.832Z,-7.91
2023-02-23T11:58:50.410Z,-7.76
2023-02-23T12:01:59.971Z,-7.84
2023-02-23T12:05:18.763Z,-8.39
2023-02-23T12:08:36.567Z,-8.32
2023-02-23T12:11:47.761Z,-8.27
2023-02-23T12:15:36.129Z,-8.49
2023-02-23T12:18:53.892Z,-8.10
2023-02-23T12:22:08.762Z,-8.01
2023-02-23T12:25:43.406Z,-8.54
2023-02-23T12:28:59.895Z,-8.87
2023-02-23T12:32:14.441Z,-8.65
2023-02-23T12:35:31.023Z,-8.81
2023-02-23T12:39:12.519Z,-8.85
2023-02-23T12:42:17.005Z,-8.87
2023-02-23T12:45:46.054Z,-8.80
2023-02-23T12:49:14.867Z,-9.08
2023-02-23T12:52:28.460Z,-9.40
2023-02-23T12:55:42.369Z,-9.33
2023-02-23T12:59:21.198Z,-9.63
2023-02-23T13:02:37.562Z,-9.58
2023-02-23T13:06:18.948Z,-9.43
2023-02-23T13:10:15.138Z,-9.62
2023-02-23T13:13:56.558Z,-9.56
2023-02-23T13:17:13.641Z,-9.79
2023-02-23T13:20:28.548Z,-10.25
2023-02-23T13:24:12.068Z,-10.32
2023-02-23T13:27:28.647Z,-10.21
2023-02-23T13:30:37.900Z,-10.24
2023-02-23T13:33:44.476Z,-10.73
2023-02-23T13:36:51.307Z,-10.62
2023-02-23T13:40:23.468Z,-10.68
2023-02-23T13:43:53.991Z,-10.61
2023-02-23T13:47:27.852Z,-10.67
2023-02-23T13:50:48.894Z,-10.53
2023-02-23T13:54:00.360Z,-10.80
2023-02-23T13:57:14.211Z,-11.05
2023-02-23T14:00:24.000Z,-11.25
2023-02-23T14:03:34.945Z,-11.12
2023-02-23T14:06:41.212Z,-11.39
2023-02-23T14:09:57.979Z,-11.21
2023-02-23T14:13:17.326Z,-11.18
2023-02-23T14:16:21.874Z,-10.96
2023-02-23T14:19:36.737Z,-11.30
2023-02-23T14:23:19.301Z,-11.53
2023-02-23T14:26:29.899Z,-11.83
2023-02-23T14:29:45.857Z,-11.99
2023-02-23T14:32:51.912Z,-11.90
2023-02-23T14:35:57.036Z,-12.20
2023-02-23T14:39:18.530Z,-12.15
2023-02-23T14:42:33.556Z,-11.89
2023-02-23T14:45:40.068Z,-11.87
2023-02-23T14:49:10.952Z,-12.23
2023-02-23T14:52:25.454Z,-12.22
2023-02-23T14:55:33.419Z,-12.69
2023-02-23T14:58:38.442Z,-12.62
2023-02-23T15:01:42.820Z,-12.78
2023-02-23T15:04:47.747Z,-12.94
2023-02-23T15:07:52.822Z,-12.88
2023-02-23T15:11:16.452Z,-12.75
2023-02-23T15:14:27.886Z,-12.57
2023-02-23T15:17:35.861Z,-12.92
2023-02-23T15:20:44.869Z,-13.16
2023-02-23T15:24:15.078Z,-13.29
2023-02-23T15:27:28.098Z,-13.14
2023-02-23T15:30:36.066Z,-12.88
2023-02-23T15:33:41.266Z,-13.40
2023-02-23T15:36:47.934Z,-13.49
2023-02-23T15:40:03.572Z,-13.35
2023-02-23T15:43:11.916Z,-13.70
2023-02-23T15:46:25.884Z,-13.63
2023-02-23T15:49:37.815Z,-13.41
2023-02-23T15:52:49.653Z,-13.77
2023-02-23T15:56:01.663Z,-13.54
2023-02-23T15:59:15.951Z,-13.73
2023-02-23T16:02:24.975Z,-14.34
2023-02-23T16:05:35.390Z,-14.45
2023-02-23T16:08:59.126Z,-14.26
2023-02-23T16:12:13.762Z,-14.33
2023-02-23T16:15:34.808Z,-14.04
2023-02-23T16:18:47.646Z,-14.00
2023-02-23T16:21:55.093Z,-13.96
2023-02-23T16:25:10.395Z,-13.94
2023-02-23T16:28:21.587Z,-13.92
2023-02-23T16:31:48.896Z,-14.29
2023-02-23T16:35:22.794Z,-14.37
2023-02-23T16:38:35.679Z,-14.39
2023-02-23T16:41:41.933Z,-14.39
2023-02-23T16:44:48.136Z,-14.87
2023-02-23T16:48:03.945Z,-14.46
2023-02-23T16:51:22.128Z,-14.62
2023-02-23T16:54:27.197Z,-14.57
2023-02-23T16:57:40.786Z,-14.94
2023-02-23T17:00:46.506Z,-15.25
2023-02-23T17:03:53.223Z,-15.15
2023-02-23T17:06:58.857Z,-15.59
2023-02-23T17:10:03.250Z,-15.69
2023-02-23T17:13:09.923Z,-15.74
2023-02-23T17:16:18.017Z,-16.03
2023-02-23T17:19:24.429Z,-15.39
2023-02-23T17:22:36.017Z,-15.25
2023-02-23T17:25:40.692Z,-14.93
2023-02-23T17:28:46.377Z,-14.77
2023-02-23T17:31:51.934Z,-15.33
2023-02-23T17:34:56.820Z,-15.71
2023-02-23T17:38:05.174Z,-15.74
2023-02-23T17:41:18.985Z,-15.41
2023-02-23T17:44:26.727Z,-15.38
2023-02-23T17:47:32.847Z,-15.56
2023-02-23T17:50:37.418Z,-15.72
2023-02-23T17:53:42.100Z,-15.76
2023-02-23T17:56:46.798Z,-15.80
2023-02-23T17:59:51.378Z,-15.82
2023-02-23T18:02:55.688Z,-15.83
2023-02-23T18:06:08.646Z,-15.98
2023-02-23T18:09:15.335Z,-15.57
2023-02-23T18:12:20.231Z,-16.10
2023-02-23T18:15:24.931Z,-15.97
2023-02-23T18:18:30.083Z,-16.44
2023-02-23T18:21:35.415Z,-16.77
2023-02-23T18:24:40.201Z,-16.51
2023-02-23T18:27:44.594Z,-16.16
2023-02-23T18:30:48.894Z,-16.48
2023-02-23T18:33:56.008Z,-16.72
2023-02-23T18:37:03.190Z,-16.55
2023-02-23T18:40:07.758Z,-16.62
2023-02-23T18:43:12.425Z,-17.12
2023-02-23T18:46:17.610Z,-17.32
2023-02-23T18:49:23.116Z,-17.24
2023-02-23T18:52:28.080Z,-17.34
2023-02-23T18:55:33.146Z,-16.98
2023-02-23T18:58:37.533Z,-16.58
2023-02-23T19:01:46.140Z,-16.32
2023-02-23T19:04:50.070Z,-16.24
2023-02-23T19:07:55.488Z,-15.83
2023-02-23T19:10:59.538Z,-15.99
2023-02-23T19:14:09.757Z,-15.90
2023-02-23T19:17:14.367Z,-16.33
2023-02-23T19:20:19.081Z,-16.77
2023-02-23T19:23:23.541Z,-16.71
2023-02-23T19:26:28.352Z,-16.61
2023-02-23T19:29:32.189Z,-16.64
2023-02-23T19:32:36.720Z,-16.93
2023-02-23T19:35:41.965Z,-17.01
2023-02-23T19:38:47.267Z,-16.79
2023-02-23T19:41:51.474Z,-16.96
2023-02-23T19:44:55.579Z,-17.42
2023-02-23T19:47:59.798Z,-17.31
2023-02-23T19:51:05.097Z,-17.22
2023-02-23T19:54:09.484Z,-17.40
2023-02-23T20:06:08.991Z,-17.63
2023-02-23T20:09:13.095Z,-17.69
2023-02-23T20:12:17.857Z,-17.80
2023-02-23T20:15:22.968Z,-17.93
2023-02-23T20:32:46.571Z,-17.34
2023-02-23T20:36:18.943Z,-17.58
2023-02-23T20:39:30.566Z,-17.40
2023-02-23T20:42:34.711Z,-17.52
2023-02-23T20:45:42.596Z,-17.07
2023-02-23T20:48:49.821Z,-16.74
2023-02-23T20:51:55.063Z,-16.49
2023-02-23T20:55:01.673Z,-16.64
2023-02-23T20:58:07.676Z,-16.69
2023-02-23T21:01:18.512Z,-16.86
2023-02-23T21:04:23.723Z,-16.38
2023-02-23T21:07:30.284Z,-16.53
2023-02-23T21:10:37.561Z,-16.82
2023-02-23T21:13:44.132Z,-16.70
2023-02-23T21:16:48.383Z,-16.65
2023-02-23T21:19:52.973Z,-16.33
2023-02-23T21:22:57.850Z,-16.16
2023-02-23T21:26:10.484Z,-16.12
2023-02-23T21:29:17.178Z,-16.23
2023-02-23T21:32:21.601Z,-16.61
2023-02-23T21:35:31.783Z,-16.88
2023-02-23T21:38:50.650Z,-16.79
2023-02-23T21:41:56.407Z,-16.50
2023-02-23T21:45:05.881Z,-17.39
2023-02-23T21:48:17.691Z,-17.22
2023-02-23T21:51:22.287Z,-17.33
2023-02-23T21:54:39.831Z,-17.34
2023-02-23T21:57:45.563Z,-17.19
2023-02-23T22:00:54.178Z,-17.49
2023-02-23T22:04:02.028Z,-17.96
2023-02-23T22:07:07.383Z,-17.46
2023-02-23T22:10:11.958Z,-17.25
2023-02-23T22:13:16.087Z,-17.22
2023-02-23T22:16:20.655Z,-17.33
2023-02-23T22:19:25.178Z,-17.67
2023-02-23T22:22:29.597Z,-18.03
2023-02-23T22:25:34.257Z,-17.86
2023-02-23T22:28:38.572Z,-17.52
2023-02-23T22:31:43.106Z,-17.49
2023-02-23T22:34:47.642Z,-17.51
2023-02-23T22:37:51.933Z,-17.49
2023-02-23T22:40:56.365Z,-17.63
2023-02-23T22:44:00.772Z,-17.63
2023-02-23T22:47:05.439Z,-17.29
2023-02-23T22:50:12.841Z,-16.82
2023-02-23T22:53:17.737Z,-16.77
2023-02-23T22:56:22.261Z,-17.01
2023-02-23T22:59:29.476Z,-15.95
2023-02-23T23:02:34.445Z,-14.37
2023-02-23T23:05:38.708Z,-12.79
2023-02-23T23:08:46.425Z,-12.06
2023-02-23T23:11:51.678Z,-11.56
2023-02-23T23:15:02.249Z,-12.15
2023-02-23T23:18:14.796Z,-11.43
2023-02-23T23:21:22.671Z,-12.07
2023-02-23T23:24:27.227Z,-11.50
2023-02-23T23:27:34.028Z,-9.58
2023-02-23T23:30:38.256Z,-8.47
2023-02-23T23:33:48.560Z,-7.76
2023-02-23T23:36:53.736Z,-8.52
2023-02-23T23:40:02.967Z,-9.07
2023-02-23T23:43:08.422Z,-8.38
2023-02-23T23:46:12.376Z,-8.49
2023-02-23T23:49:21.478Z,-9.38
2023-02-23T23:52:26.069Z,-9.70
2023-02-23T23:55:32.267Z,-10.36
2023-02-23T23:58:37.652Z,-9.96
